Ojo Feliz, New Mexico
Current Conditions -  °F | °C
As of 4:15 AM on Sunday 21 Dec 2014 (Local Time) from KAXX Reporting Station
Clear Clear  
Wind Chill: 12°   Ceiling: Unl
Heat Index: 24°   Visibility: 10mi
Dew Point: 19°   Wind: 13mph
Humidity: 80%   Direction: 240°WSW
Pressure: 30"   Gusts: 17mph
Location:  36.06°N, 105.12°W
Report Text: KAXX 211115Z AUTO 24011G15KT 200V280 10SM CLR M05/M07 A3000 RMK AO2 T10461075
Loading
Personal Weather Stations






























Interactive Weather Map New forecast layout! Learn more

10-Day Weather Forecast

Advertisements
Track Severe Weather on mobile